createdAt,value
2019-05-07T00:00:22.081Z,8.25
2019-05-07T00:01:19.815Z,8.23
2019-05-07T00:02:07.181Z,8.17
2019-05-07T00:02:42.868Z,8.32
2019-05-07T00:03:18.459Z,8.27
2019-05-07T00:03:53.890Z,8.27
2019-05-07T00:04:29.654Z,8.34
2019-05-07T00:05:05.694Z,8.37
2019-05-07T00:05:42.795Z,8.37
2019-05-07T00:06:18.693Z,8.30
2019-05-07T00:06:54.156Z,8.30
2019-05-07T00:07:29.598Z,8.27
2019-05-07T00:08:05.734Z,8.27
2019-05-07T00:08:44.654Z,8.19
2019-05-07T00:09:18.302Z,8.19
2019-05-07T00:09:54.193Z,8.17
2019-05-07T00:10:29.933Z,8.19
2019-05-07T00:11:05.457Z,8.19
2019-05-07T00:11:42.605Z,8.20
2019-05-07T00:12:18.277Z,8.28
2019-05-07T00:12:53.784Z,8.28
2019-05-07T00:13:29.508Z,8.31
2019-05-07T00:14:05.561Z,8.47
2019-05-07T00:14:42.925Z,8.47
2019-05-07T00:15:18.522Z,8.41
2019-05-07T00:15:54.016Z,8.41
2019-05-07T00:16:29.467Z,8.31
2019-05-07T00:17:04.917Z,8.31
2019-05-07T00:17:40.366Z,8.20
2019-05-07T00:18:15.911Z,8.21
2019-05-07T00:18:52.570Z,8.21
2019-05-07T00:19:28.344Z,8.21
2019-05-07T00:20:03.807Z,8.21
2019-05-07T00:20:39.238Z,8.17
2019-05-07T00:21:15.245Z,8.16
2019-05-07T00:21:52.828Z,8.08
2019-05-07T00:22:29.341Z,8.08
2019-05-07T00:23:04.824Z,8.07
2019-05-07T00:23:40.385Z,8.10
2019-05-07T00:24:15.930Z,8.04
2019-05-07T00:24:52.192Z,8.10
2019-05-07T00:25:27.864Z,8.10
2019-05-07T00:26:03.873Z,8.07
2019-05-07T00:26:39.740Z,8.07
2019-05-07T00:27:15.815Z,8.00
2019-05-07T00:27:52.340Z,8.01
2019-05-07T00:28:28.420Z,8.01
2019-05-07T00:29:04.502Z,8.03
2019-05-07T00:29:39.967Z,8.03
2019-05-07T00:30:15.985Z,8.01
2019-05-07T00:30:52.122Z,8.00
2019-05-07T00:31:27.693Z,8.00
2019-05-07T00:32:03.157Z,7.96
2019-05-07T00:32:39.265Z,7.96
2019-05-07T00:33:15.520Z,7.97
2019-05-07T00:33:52.595Z,7.96
2019-05-07T00:34:34.267Z,7.99
2019-05-07T00:35:13.080Z,7.99
2019-05-07T00:36:13.016Z,8.10
2019-05-07T00:37:12.939Z,8.19
2019-05-07T00:37:52.451Z,8.19
2019-05-07T00:38:31.842Z,8.12
2019-05-07T00:39:23.931Z,8.15
2019-05-07T00:40:06.739Z,8.07
2019-05-07T00:41:02.825Z,8.07
2019-05-07T00:41:49.278Z,8.04
2019-05-07T00:42:42.771Z,8.03
2019-05-07T00:43:22.687Z,7.99
2019-05-07T00:43:58.807Z,8.01
2019-05-07T00:44:35.891Z,7.98
2019-05-07T00:45:23.771Z,7.97
2019-05-07T00:46:13.324Z,7.96
2019-05-07T00:46:48.878Z,7.96
2019-05-07T00:47:24.328Z,7.99
2019-05-07T00:47:59.754Z,7.96
2019-05-07T00:48:35.230Z,7.96
2019-05-07T00:49:12.667Z,7.91
2019-05-07T00:49:48.712Z,7.93
2019-05-07T00:50:28.850Z,7.96
2019-05-07T00:51:22.606Z,7.96
2019-05-07T00:51:58.169Z,8.05
2019-05-07T00:52:33.708Z,8.05
2019-05-07T00:53:09.148Z,8.02
2019-05-07T00:53:44.708Z,8.02
2019-05-07T00:54:20.221Z,8.04
2019-05-07T00:54:56.033Z,8.03
2019-05-07T00:55:32.565Z,8.06
2019-05-07T00:56:08.114Z,8.06
2019-05-07T00:56:44.031Z,8.12
2019-05-07T00:57:19.671Z,8.05
2019-05-07T00:57:55.119Z,8.05
2019-05-07T00:58:32.119Z,8.02
2019-05-07T00:59:08.246Z,8.22
2019-05-07T00:59:43.721Z,8.18
2019-05-07T01:00:19.357Z,8.18
2019-05-07T01:00:55.430Z,8.27
2019-05-07T01:01:32.385Z,8.27
2019-05-07T01:02:07.951Z,8.16
2019-05-07T01:02:43.479Z,8.12
2019-05-07T01:03:19.015Z,8.13
2019-05-07T01:03:54.595Z,8.07
2019-05-07T01:04:30.464Z,8.07
2019-05-07T01:05:06.147Z,8.00
2019-05-07T01:05:43.180Z,8.00
2019-05-07T01:06:19.174Z,8.00
2019-05-07T01:06:54.625Z,8.12
2019-05-07T01:07:32.329Z,8.07
2019-05-07T01:08:07.936Z,8.03
2019-05-07T01:08:43.397Z,8.03
2019-05-07T01:09:19.222Z,7.97
2019-05-07T01:09:54.753Z,8.10
2019-05-07T01:10:32.823Z,8.05
2019-05-07T01:11:07.736Z,8.05
2019-05-07T01:11:43.331Z,8.06
2019-05-07T01:12:19.181Z,8.05
2019-05-07T01:12:54.622Z,8.03
2019-05-07T01:13:32.223Z,8.13
2019-05-07T01:14:07.389Z,8.13
2019-05-07T01:14:42.967Z,8.10
2019-05-07T01:15:28.752Z,8.09
2019-05-07T01:15:55.665Z,8.06
2019-05-07T01:16:32.982Z,8.06
2019-05-07T01:17:08.331Z,8.07
2019-05-07T01:17:43.865Z,8.17
2019-05-07T01:18:19.471Z,8.09
2019-05-07T01:18:54.915Z,8.09
2019-05-07T01:19:32.887Z,8.09
2019-05-07T01:20:07.874Z,8.11
2019-05-07T01:20:44.196Z,8.10
2019-05-07T01:21:22.708Z,8.11
2019-05-07T01:21:57.832Z,8.11
2019-05-07T01:22:33.284Z,8.08
2019-05-07T01:23:08.745Z,8.10
2019-05-07T01:23:44.317Z,8.12
2019-05-07T01:24:20.105Z,8.12
2019-05-07T01:24:55.653Z,8.07
2019-05-07T01:25:32.878Z,8.03
2019-05-07T01:26:08.643Z,7.95
2019-05-07T01:26:44.198Z,7.95
2019-05-07T01:27:22.434Z,8.05
2019-05-07T01:27:58.256Z,8.04
2019-05-07T01:28:52.936Z,8.04
2019-05-07T01:29:28.383Z,7.99
2019-05-07T01:30:04.111Z,7.99
2019-05-07T01:30:39.595Z,8.16
2019-05-07T01:31:15.107Z,8.13
2019-05-07T01:31:56.550Z,8.07
2019-05-07T01:32:50.540Z,8.11
2019-05-07T01:33:52.872Z,8.01
2019-05-07T01:34:47.251Z,7.97
2019-05-07T01:35:45.203Z,8.05
2019-05-07T01:36:22.629Z,8.05
2019-05-07T01:36:59.325Z,8.07
2019-05-07T01:37:35.183Z,8.00
2019-05-07T01:38:12.315Z,8.01
2019-05-07T01:38:48.095Z,7.97
2019-05-07T01:39:23.586Z,7.99
2019-05-07T01:39:59.031Z,7.96
2019-05-07T01:40:35.039Z,7.95
2019-05-07T01:41:12.500Z,7.92
2019-05-07T01:41:47.918Z,7.92
2019-05-07T01:42:23.386Z,8.04
2019-05-07T01:42:58.910Z,8.04
2019-05-07T01:43:34.897Z,8.14
2019-05-07T01:44:12.710Z,8.01
2019-05-07T01:44:47.919Z,8.01
2019-05-07T01:45:24.855Z,8.07
2019-05-07T01:46:02.966Z,8.07
2019-05-07T01:46:37.941Z,8.02
2019-05-07T01:47:14.059Z,7.99
2019-05-07T01:47:49.734Z,7.97
2019-05-07T01:48:25.185Z,7.97
2019-05-07T01:49:02.936Z,8.00
2019-05-07T01:49:38.013Z,8.01
2019-05-07T01:50:14.283Z,8.01
2019-05-07T01:50:49.844Z,8.01
2019-05-07T01:51:25.338Z,7.98
2019-05-07T01:52:02.498Z,7.99
2019-05-07T01:52:38.055Z,7.97
2019-05-07T01:53:14.019Z,8.04
2019-05-07T01:53:49.562Z,8.01
2019-05-07T01:54:25.132Z,8.00
2019-05-07T01:55:03.007Z,7.91
2019-05-07T01:55:38.419Z,7.87
2019-05-07T01:56:14.227Z,7.86
2019-05-07T01:56:51.655Z,7.80
2019-05-07T01:57:27.323Z,7.81
2019-05-07T01:58:04.857Z,7.96
2019-05-07T01:58:42.332Z,7.96
2019-05-07T01:59:17.568Z,7.93
2019-05-07T01:59:53.410Z,7.93
2019-05-07T02:00:28.960Z,7.88
2019-05-07T02:01:04.427Z,7.94
2019-05-07T02:01:42.725Z,7.88
2019-05-07T02:02:23.467Z,7.88
2019-05-07T02:03:05.729Z,8.04
2019-05-07T02:03:53.866Z,7.99
2019-05-07T02:04:48.294Z,8.07
2019-05-07T02:05:42.856Z,8.03
2019-05-07T02:06:24.356Z,7.99
2019-05-07T02:07:15.692Z,7.99
2019-05-07T02:07:55.225Z,7.96
2019-05-07T02:08:44.933Z,7.94
2019-05-07T02:09:29.632Z,7.93
2019-05-07T02:10:11.953Z,7.99
2019-05-07T02:11:06.380Z,8.02
2019-05-07T02:11:44.052Z,8.02
2019-05-07T02:12:38.330Z,8.04
2019-05-07T02:13:14.267Z,7.96
2019-05-07T02:13:49.748Z,7.96
2019-05-07T02:14:25.532Z,8.07
2019-05-07T02:15:02.711Z,8.16
2019-05-07T02:15:38.385Z,8.16
2019-05-07T02:16:14.512Z,8.20
2019-05-07T02:16:50.020Z,8.15
2019-05-07T02:17:25.475Z,8.16
2019-05-07T02:18:02.036Z,8.16
2019-05-07T02:18:37.643Z,8.14
2019-05-07T02:19:14.429Z,8.20
2019-05-07T02:19:50.315Z,8.13
2019-05-07T02:20:25.788Z,8.06
2019-05-07T02:21:03.211Z,8.03
2019-05-07T02:21:38.767Z,7.97
2019-05-07T02:22:14.817Z,7.97
2019-05-07T02:22:50.351Z,7.97
2019-05-07T02:23:25.844Z,7.97
2019-05-07T02:24:03.325Z,7.91
2019-05-07T02:24:38.930Z,7.98
2019-05-07T02:25:14.878Z,7.98
2019-05-07T02:25:52.677Z,7.98
2019-05-07T02:26:28.187Z,7.92
2019-05-07T02:27:03.669Z,7.94
2019-05-07T02:27:39.143Z,7.83
2019-05-07T02:28:14.712Z,7.86
2019-05-07T02:28:51.862Z,7.91
2019-05-07T02:29:27.443Z,7.94
2019-05-07T02:30:04.568Z,7.94
2019-05-07T02:30:40.201Z,8.01
2019-05-07T02:31:15.729Z,8.05
2019-05-07T02:31:53.063Z,8.05
2019-05-07T02:32:28.854Z,8.11
2019-05-07T02:33:04.460Z,7.99
2019-05-07T02:33:42.657Z,7.97
2019-05-07T02:34:17.145Z,8.03
2019-05-07T02:34:54.499Z,8.04
2019-05-07T02:35:33.034Z,8.04
2019-05-07T02:36:06.990Z,8.11
2019-05-07T02:36:43.577Z,8.13
2019-05-07T02:37:29.439Z,8.13
2019-05-07T02:38:08.951Z,8.00
2019-05-07T02:39:12.628Z,7.92
2019-05-07T02:39:53.915Z,8.15
2019-05-07T02:40:43.046Z,8.06
2019-05-07T02:41:23.953Z,8.06
2019-05-07T02:41:59.786Z,7.95
2019-05-07T02:42:35.274Z,7.95
2019-05-07T02:43:14.111Z,7.91
2019-05-07T02:43:48.688Z,7.91
2019-05-07T02:44:24.764Z,7.93
2019-05-07T02:45:19.467Z,7.93
2019-05-07T02:46:26.361Z,8.00
2019-05-07T02:47:03.742Z,7.97
2019-05-07T02:47:37.793Z,7.92
2019-05-07T02:48:14.396Z,7.93
2019-05-07T02:49:03.136Z,7.93
2019-05-07T02:49:46.423Z,7.93
2019-05-07T02:50:26.854Z,8.04
2019-05-07T02:51:07.366Z,7.93
2019-05-07T02:51:49.608Z,7.88
2019-05-07T02:52:44.258Z,7.74
2019-05-07T02:53:33.796Z,7.77
2019-05-07T02:54:32.868Z,7.77
2019-05-07T02:55:14.367Z,7.79
2019-05-07T02:55:52.990Z,7.79
2019-05-07T02:56:28.477Z,7.77
2019-05-07T02:57:03.951Z,7.71
2019-05-07T02:57:39.411Z,7.70
2019-05-07T02:58:15.356Z,7.70
2019-05-07T02:58:52.809Z,7.76
2019-05-07T02:59:28.762Z,7.74
2019-05-07T03:00:05.592Z,7.68
2019-05-07T03:00:43.373Z,7.65
2019-05-07T03:01:22.451Z,7.61
2019-05-07T03:01:56.711Z,7.72
2019-05-07T03:02:33.271Z,7.74
2019-05-07T03:03:08.805Z,7.74
2019-05-07T03:03:45.078Z,7.70
2019-05-07T03:04:20.664Z,7.72
2019-05-07T03:04:56.477Z,7.72
2019-05-07T03:05:35.005Z,7.73
2019-05-07T03:06:09.842Z,7.71
2019-05-07T03:06:45.431Z,7.73
2019-05-07T03:07:23.898Z,7.64
2019-05-07T03:07:58.077Z,7.77
2019-05-07T03:08:33.545Z,7.77
2019-05-07T03:09:09.017Z,7.69
2019-05-07T03:09:44.876Z,7.65
2019-05-07T03:10:23.865Z,7.67
2019-05-07T03:10:58.333Z,7.63
2019-05-07T03:11:34.225Z,7.65
2019-05-07T03:12:12.966Z,7.65
2019-05-07T03:12:47.378Z,7.64
2019-05-07T03:13:23.857Z,7.65
2019-05-07T03:13:59.483Z,7.64
2019-05-07T03:14:34.932Z,7.64
2019-05-07T03:15:12.941Z,7.64
2019-05-07T03:15:47.781Z,7.83
2019-05-07T03:16:38.680Z,7.92
2019-05-07T03:17:03.077Z,7.86
2019-05-07T03:17:38.580Z,7.80
2019-05-07T03:18:18.621Z,7.81
2019-05-07T03:18:53.278Z,7.73
2019-05-07T03:19:29.302Z,7.71
2019-05-07T03:20:07.851Z,7.71
2019-05-07T03:20:57.248Z,7.64
2019-05-07T03:21:53.407Z,7.62
2019-05-07T03:22:28.169Z,7.62
2019-05-07T03:23:04.570Z,7.63
2019-05-07T03:24:03.411Z,7.67
2019-05-07T03:24:53.606Z,7.67
2019-05-07T03:25:33.987Z,7.66
2019-05-07T03:26:16.804Z,7.64
2019-05-07T03:26:53.589Z,7.64
2019-05-07T03:27:29.279Z,7.62
2019-05-07T03:28:04.746Z,7.64
2019-05-07T03:29:03.648Z,7.72
2019-05-07T03:29:38.742Z,7.71
2019-05-07T03:30:35.954Z,7.64
2019-05-07T03:31:17.252Z,7.59
2019-05-07T03:31:59.005Z,7.54
2019-05-07T03:32:46.902Z,7.53
2019-05-07T03:33:37.324Z,7.55
2019-05-07T03:34:36.914Z,7.56
2019-05-07T03:35:20.558Z,7.67
2019-05-07T03:35:57.285Z,7.77
2019-05-07T03:36:46.588Z,7.68
2019-05-07T03:37:23.410Z,7.64
2019-05-07T03:37:58.777Z,7.71
2019-05-07T03:38:34.226Z,7.67
2019-05-07T03:39:09.687Z,7.57
2019-05-07T03:39:46.319Z,7.57
2019-05-07T03:40:23.109Z,7.43
2019-05-07T03:40:59.019Z,7.35
2019-05-07T03:41:34.532Z,7.35
2019-05-07T03:42:12.764Z,7.31
2019-05-07T03:42:47.143Z,7.31
2019-05-07T03:43:24.578Z,7.42
2019-05-07T03:44:03.730Z,7.51
2019-05-07T03:45:07.186Z,7.42
2019-05-07T03:46:17.544Z,7.41
2019-05-07T03:47:01.597Z,7.47
2019-05-07T03:47:34.289Z,7.42
2019-05-07T03:48:17.879Z,7.33
2019-05-07T03:48:53.406Z,7.25
2019-05-07T03:49:33.877Z,7.21
2019-05-07T03:50:10.143Z,7.21
2019-05-07T03:50:45.654Z,7.22
2019-05-07T03:51:23.760Z,7.14
2019-05-07T03:51:58.351Z,7.09
2019-05-07T03:52:33.832Z,7.17
2019-05-07T03:53:09.245Z,7.16
2019-05-07T03:53:44.763Z,7.12
2019-05-07T03:54:20.327Z,7.01
2019-05-07T03:54:56.117Z,7.01
2019-05-07T03:55:33.243Z,7.04
2019-05-07T03:56:09.173Z,7.04
2019-05-07T03:56:44.712Z,7.04
2019-05-07T03:57:23.464Z,7.06
2019-05-07T03:57:57.434Z,7.17
2019-05-07T03:58:33.922Z,7.17
2019-05-07T03:59:12.868Z,7.15
2019-05-07T03:59:47.255Z,7.15
2019-05-07T04:00:23.857Z,7.16
2019-05-07T04:00:59.561Z,7.17
2019-05-07T04:01:34.979Z,7.21
2019-05-07T04:02:13.926Z,7.22
2019-05-07T04:02:48.068Z,7.15
2019-05-07T04:03:24.744Z,7.13
2019-05-07T04:04:03.575Z,7.01
2019-05-07T04:04:37.961Z,7.01
2019-05-07T04:05:14.445Z,7.06
2019-05-07T04:05:53.052Z,7.06
2019-05-07T04:06:27.658Z,7.06
2019-05-07T04:07:03.627Z,7.06
2019-05-07T04:07:39.650Z,7.17
2019-05-07T04:08:15.860Z,7.14
2019-05-07T04:08:53.170Z,7.14
2019-05-07T04:09:28.625Z,7.11
2019-05-07T04:10:04.986Z,7.07
2019-05-07T04:10:43.785Z,7.07
2019-05-07T04:11:17.645Z,7.13
2019-05-07T04:11:53.205Z,7.18
2019-05-07T04:12:29.054Z,7.25
2019-05-07T04:13:04.771Z,7.19
2019-05-07T04:13:40.263Z,7.17
2019-05-07T04:14:16.262Z,7.18
2019-05-07T04:14:53.443Z,7.15
2019-05-07T04:15:32.770Z,7.16
2019-05-07T04:16:06.920Z,7.16
2019-05-07T04:16:44.118Z,7.06
2019-05-07T04:17:23.269Z,7.06
2019-05-07T04:17:57.441Z,7.02
2019-05-07T04:18:33.314Z,7.04
2019-05-07T04:19:13.000Z,7.04
2019-05-07T04:19:46.929Z,7.06
2019-05-07T04:20:23.937Z,7.04
2019-05-07T04:20:59.694Z,7.05
2019-05-07T04:21:35.167Z,7.08
2019-05-07T04:22:13.126Z,7.08
2019-05-07T04:22:48.263Z,7.16
2019-05-07T04:23:23.828Z,7.10
2019-05-07T04:24:15.162Z,7.05
2019-05-07T04:24:59.077Z,7.05
2019-05-07T04:25:59.984Z,6.99
2019-05-07T04:26:42.932Z,7.01
2019-05-07T04:27:26.188Z,7.07
2019-05-07T04:28:09.419Z,7.10
2019-05-07T04:28:54.704Z,7.15
2019-05-07T04:29:30.177Z,7.16
2019-05-07T04:30:06.156Z,7.17
2019-05-07T04:30:43.813Z,7.13
2019-05-07T04:31:19.018Z,7.14
2019-05-07T04:31:55.359Z,7.03
2019-05-07T04:32:37.626Z,6.91
2019-05-07T04:33:14.557Z,6.88
2019-05-07T04:33:53.154Z,6.91
2019-05-07T04:34:45.572Z,6.97
2019-05-07T04:35:27.054Z,7.23
2019-05-07T04:36:08.371Z,7.23
2019-05-07T04:36:46.638Z,7.17
2019-05-07T04:37:24.017Z,7.16
2019-05-07T04:38:02.205Z,7.09
2019-05-07T04:38:37.217Z,7.07
2019-05-07T04:39:13.470Z,7.07
2019-05-07T04:39:55.441Z,7.11
2019-05-07T04:40:33.820Z,7.21
2019-05-07T04:41:08.426Z,7.24
2019-05-07T04:41:44.742Z,7.11
2019-05-07T04:42:24.049Z,7.10
2019-05-07T04:42:57.958Z,7.40
2019-05-07T04:43:33.814Z,7.40
2019-05-07T04:44:09.433Z,7.46
2019-05-07T04:44:45.421Z,7.31
2019-05-07T04:45:23.177Z,7.31
2019-05-07T04:45:58.701Z,7.41
2019-05-07T04:46:34.153Z,7.43
2019-05-07T04:47:13.113Z,7.37
2019-05-07T04:47:48.138Z,7.34
2019-05-07T04:48:24.213Z,7.29
2019-05-07T04:48:59.658Z,7.26
2019-05-07T04:49:35.378Z,7.17
2019-05-07T04:50:13.904Z,7.10
2019-05-07T04:50:54.223Z,7.10
2019-05-07T04:51:39.119Z,7.04
2019-05-07T04:52:23.666Z,7.04
2019-05-07T04:52:57.885Z,7.07
2019-05-07T04:53:33.659Z,7.10
2019-05-07T04:54:09.460Z,7.08
2019-05-07T04:54:45.086Z,7.12
2019-05-07T04:55:22.963Z,7.16
2019-05-07T04:55:58.120Z,7.31
2019-05-07T04:56:33.899Z,7.46
2019-05-07T04:57:25.595Z,7.46
2019-05-07T04:58:03.404Z,7.63
2019-05-07T04:58:38.303Z,7.63
2019-05-07T04:59:14.399Z,7.75
2019-05-07T04:59:49.911Z,7.63
2019-05-07T05:00:25.413Z,7.61
2019-05-07T05:01:03.274Z,7.49
2019-05-07T05:01:43.599Z,7.58
2019-05-07T05:02:23.124Z,7.41
2019-05-07T05:03:26.640Z,7.32
2019-05-07T05:04:21.156Z,7.32
2019-05-07T05:04:39.223Z,7.21
2019-05-07T05:05:15.722Z,7.27
2019-05-07T05:05:53.234Z,7.34
2019-05-07T05:06:29.340Z,7.34
2019-05-07T05:07:04.801Z,7.62
2019-05-07T05:07:42.870Z,7.57
2019-05-07T05:08:18.274Z,7.57
2019-05-07T05:08:56.244Z,7.46
2019-05-07T05:09:32.885Z,7.40
2019-05-07T05:10:08.947Z,7.40
2019-05-07T05:10:44.704Z,7.34
2019-05-07T05:11:23.042Z,7.36
2019-05-07T05:11:57.931Z,7.41
2019-05-07T05:12:33.379Z,7.41
2019-05-07T05:13:08.861Z,7.53
2019-05-07T05:13:45.061Z,7.39
2019-05-07T05:14:22.700Z,7.44
2019-05-07T05:14:57.929Z,7.55
2019-05-07T05:15:33.800Z,7.55
2019-05-07T05:16:25.627Z,7.53
2019-05-07T05:17:02.070Z,7.71
2019-05-07T05:17:48.019Z,7.60
2019-05-07T05:18:15.417Z,7.55
2019-05-07T05:18:51.714Z,7.55
2019-05-07T05:19:27.683Z,7.66
2019-05-07T05:20:03.746Z,7.77
2019-05-07T05:20:56.805Z,7.81
2019-05-07T05:21:44.495Z,7.84
2019-05-07T05:22:39.416Z,7.84
2019-05-07T05:23:46.429Z,7.84
2019-05-07T05:24:27.149Z,7.84
2019-05-07T05:25:17.969Z,7.84
2019-05-07T05:25:53.858Z,7.81
2019-05-07T05:26:29.307Z,7.88
2019-05-07T05:27:04.797Z,7.63
2019-05-07T05:27:42.842Z,7.57
2019-05-07T05:28:17.893Z,7.57
2019-05-07T05:28:53.385Z,7.67
2019-05-07T05:29:28.862Z,7.67
2019-05-07T05:30:04.988Z,7.67
2019-05-07T05:30:43.121Z,7.56
2019-05-07T05:31:19.001Z,7.56
2019-05-07T05:31:54.454Z,7.68
2019-05-07T05:32:32.432Z,7.72
2019-05-07T05:33:07.679Z,7.88
2019-05-07T05:33:43.692Z,7.71
2019-05-07T05:34:22.100Z,7.62
2019-05-07T05:34:58.673Z,7.62
2019-05-07T05:35:34.489Z,7.72
2019-05-07T05:36:12.440Z,7.85
2019-05-07T05:36:47.295Z,7.88
2019-05-07T05:37:23.313Z,7.83
2019-05-07T05:37:59.094Z,7.79
2019-05-07T05:38:34.534Z,7.61
2019-05-07T05:39:10.007Z,7.74
2019-05-07T05:39:46.576Z,7.86
2019-05-07T05:40:22.860Z,7.84
2019-05-07T05:40:58.653Z,7.84
2019-05-07T05:41:37.724Z,7.88
2019-05-07T05:42:36.526Z,7.95
2019-05-07T05:43:19.452Z,7.95
2019-05-07T05:44:07.622Z,7.86
2019-05-07T05:44:43.327Z,7.97
2019-05-07T05:45:35.889Z,8.07
2019-05-07T05:46:12.178Z,8.13
2019-05-07T05:46:47.932Z,8.18
2019-05-07T05:47:23.796Z,8.24
2019-05-07T05:48:04.548Z,8.25
2019-05-07T05:48:37.102Z,8.30
2019-05-07T05:49:13.669Z,8.30
2019-05-07T05:49:49.591Z,8.40
2019-05-07T05:50:26.937Z,8.35
2019-05-07T05:51:11.782Z,8.35
2019-05-07T05:51:59.323Z,8.28
2019-05-07T05:52:45.569Z,8.29
2019-05-07T05:53:43.502Z,8.22
2019-05-07T05:54:38.042Z,8.27
2019-05-07T05:55:16.951Z,8.34
2019-05-07T05:55:53.376Z,8.31
2019-05-07T05:56:37.664Z,8.41
2019-05-07T05:57:23.018Z,8.41
2019-05-07T05:58:12.761Z,8.60
2019-05-07T05:59:05.355Z,8.60
2019-05-07T06:00:05.732Z,8.46
2019-05-07T06:01:09.440Z,8.46
2019-05-07T06:01:58.256Z,8.52
2019-05-07T06:02:58.476Z,8.94
2019-05-07T06:03:49.398Z,8.94
2019-05-07T06:04:33.572Z,8.88
2019-05-07T06:05:34.321Z,8.83
2019-05-07T06:06:33.702Z,8.83
2019-05-07T06:07:15.330Z,8.88
2019-05-07T06:07:59.950Z,8.88
2019-05-07T06:08:43.616Z,8.79
2019-05-07T06:09:29.957Z,8.83
2019-05-07T06:10:17.529Z,8.83
2019-05-07T06:11:14.575Z,8.97
2019-05-07T06:12:12.796Z,9.22
2019-05-07T06:13:01.760Z,9.28
2019-05-07T06:13:52.649Z,9.10
2019-05-07T06:14:46.753Z,9.10
2019-05-07T06:15:44.302Z,9.06
2019-05-07T06:16:23.282Z,8.99
2019-05-07T06:17:16.495Z,9.13
2019-05-07T06:18:29.468Z,9.13
2019-05-07T06:19:33.335Z,9.31
2019-05-07T06:20:37.236Z,9.31
2019-05-07T06:21:24.098Z,9.31
2019-05-07T06:22:12.822Z,9.00
2019-05-07T06:23:07.365Z,9.00
2019-05-07T06:23:46.682Z,8.90
2019-05-07T06:24:32.813Z,8.87
2019-05-07T06:25:15.675Z,8.67
2019-05-07T06:25:52.336Z,8.60
2019-05-07T06:26:28.187Z,8.70
2019-05-07T06:27:03.775Z,8.76
2019-05-07T06:27:39.253Z,8.67
2019-05-07T06:28:14.819Z,8.68
2019-05-07T06:28:51.909Z,8.68
2019-05-07T06:29:27.487Z,8.62
2019-05-07T06:30:05.026Z,8.63
2019-05-07T06:30:41.846Z,8.77
2019-05-07T06:31:17.567Z,8.88
2019-05-07T06:32:03.260Z,8.73
2019-05-07T06:32:39.084Z,8.79
2019-05-07T06:33:14.709Z,8.79
2019-05-07T06:33:52.275Z,8.89
2019-05-07T06:34:28.131Z,8.90
2019-05-07T06:35:03.585Z,8.89
2019-05-07T06:35:39.381Z,8.94
2019-05-07T06:36:15.123Z,9.08
2019-05-07T06:36:52.676Z,9.20
2019-05-07T06:37:28.314Z,9.28
2019-05-07T06:38:04.879Z,9.28
2019-05-07T06:38:49.599Z,9.26
2019-05-07T06:39:28.138Z,9.35
2019-05-07T06:40:29.323Z,9.23
2019-05-07T06:41:25.036Z,9.36
2019-05-07T06:42:22.251Z,9.44
2019-05-07T06:43:04.241Z,9.69
2019-05-07T06:43:44.367Z,9.69
2019-05-07T06:44:22.518Z,9.59
2019-05-07T06:45:05.499Z,9.47
2019-05-07T06:45:44.143Z,9.26
2019-05-07T06:46:19.649Z,9.26
2019-05-07T06:46:55.173Z,9.30
2019-05-07T06:47:31.901Z,9.30
2019-05-07T06:48:07.789Z,9.43
2019-05-07T06:48:46.119Z,9.64
2019-05-07T06:49:22.289Z,9.83
2019-05-07T06:49:58.338Z,9.86
2019-05-07T06:50:34.059Z,9.98
2019-05-07T06:51:09.542Z,9.98
2019-05-07T06:51:47.679Z,9.88
2019-05-07T06:52:22.522Z,9.72
2019-05-07T06:52:57.971Z,9.78
2019-05-07T06:53:33.854Z,9.97
2019-05-07T06:54:09.694Z,10.01
2019-05-07T06:54:45.309Z,9.92
2019-05-07T06:55:22.877Z,10.11
2019-05-07T06:56:00.068Z,10.22
2019-05-07T06:56:35.548Z,10.13
2019-05-07T06:57:13.048Z,10.26
2019-05-07T06:57:48.233Z,10.35
2019-05-07T06:58:25.619Z,10.35
2019-05-07T06:59:06.388Z,10.30
2019-05-07T06:59:45.952Z,10.35
2019-05-07T07:00:42.198Z,10.35
2019-05-07T07:01:35.929Z,10.11
2019-05-07T07:02:37.241Z,10.29
2019-05-07T07:03:27.805Z,10.38
2019-05-07T07:04:13.876Z,10.18
2019-05-07T07:04:56.903Z,10.13
2019-05-07T07:05:51.846Z,10.07
2019-05-07T07:06:32.079Z,9.85
2019-05-07T07:07:26.089Z,9.99
2019-05-07T07:07:56.724Z,10.13
2019-05-07T07:08:37.038Z,10.18
2019-05-07T07:09:19.651Z,10.28
2019-05-07T07:10:27.084Z,10.16
2019-05-07T07:11:22.434Z,10.06
2019-05-07T07:12:02.094Z,10.06
2019-05-07T07:12:37.272Z,10.09
2019-05-07T07:13:13.042Z,10.29
2019-05-07T07:13:48.584Z,10.35
2019-05-07T07:14:24.455Z,10.38
2019-05-07T07:15:02.568Z,10.48
2019-05-07T07:15:37.400Z,10.40
2019-05-07T07:16:13.471Z,10.26
2019-05-07T07:16:49.347Z,10.29
2019-05-07T07:17:25.050Z,10.21
2019-05-07T07:18:02.986Z,10.17
2019-05-07T07:18:51.363Z,10.07
2019-05-07T07:19:15.399Z,10.11
2019-05-07T07:19:52.333Z,10.03
2019-05-07T07:20:27.941Z,10.27
2019-05-07T07:21:04.411Z,10.21
2019-05-07T07:21:42.040Z,10.20
2019-05-07T07:22:17.828Z,10.26
2019-05-07T07:22:53.339Z,10.16
2019-05-07T07:23:28.805Z,10.23
2019-05-07T07:24:04.393Z,10.31
2019-05-07T07:24:42.280Z,10.63
2019-05-07T07:25:17.586Z,10.55
2019-05-07T07:25:53.048Z,10.57
2019-05-07T07:26:28.508Z,10.54
2019-05-07T07:27:04.002Z,10.38
2019-05-07T07:27:39.437Z,10.43
2019-05-07T07:28:15.369Z,10.50
2019-05-07T07:28:52.507Z,10.69
2019-05-07T07:29:32.469Z,10.92
2019-05-07T07:30:21.872Z,10.80
2019-05-07T07:31:13.965Z,10.71
2019-05-07T07:31:55.224Z,10.71
2019-05-07T07:32:36.489Z,10.67
2019-05-07T07:33:12.299Z,10.83
2019-05-07T07:33:48.207Z,10.92
2019-05-07T07:34:24.573Z,10.69
2019-05-07T07:35:02.409Z,10.74
2019-05-07T07:35:37.574Z,10.98
2019-05-07T07:36:13.080Z,11.02
2019-05-07T07:37:08.988Z,10.97
2019-05-07T07:37:43.007Z,11.08
2019-05-07T07:38:34.146Z,11.30
2019-05-07T07:39:09.842Z,11.40
2019-05-07T07:39:45.846Z,11.22
2019-05-07T07:40:36.616Z,11.55
2019-05-07T07:41:27.052Z,11.55
2019-05-07T07:42:04.169Z,11.61
2019-05-07T07:42:40.011Z,11.58
2019-05-07T07:43:15.577Z,11.61
2019-05-07T07:43:52.606Z,11.48
2019-05-07T07:44:28.177Z,11.71
2019-05-07T07:45:18.987Z,11.57
2019-05-07T07:45:54.435Z,11.57
2019-05-07T07:46:29.978Z,11.77
2019-05-07T07:47:05.555Z,11.85
2019-05-07T07:47:42.224Z,12.26
2019-05-07T07:48:18.523Z,12.48
2019-05-07T07:49:06.884Z,12.55
2019-05-07T07:49:32.917Z,12.61
2019-05-07T07:50:08.795Z,12.52
2019-05-07T07:50:45.117Z,12.46
2019-05-07T07:51:36.660Z,12.13
2019-05-07T07:51:57.835Z,11.82
2019-05-07T07:52:33.612Z,11.68
2019-05-07T07:53:09.061Z,11.86
2019-05-07T07:53:44.957Z,11.99
2019-05-07T07:54:22.653Z,12.54
2019-05-07T07:54:57.746Z,12.54
2019-05-07T07:55:42.606Z,12.54
2019-05-07T07:56:49.991Z,12.29
2019-05-07T07:57:36.244Z,12.29
2019-05-07T07:58:34.268Z,12.08
2019-05-07T07:59:22.159Z,11.98
2019-05-07T08:00:16.720Z,12.18
2019-05-07T08:01:02.820Z,11.94
2019-05-07T08:01:44.028Z,12.66
2019-05-07T08:02:38.770Z,12.66
2019-05-07T08:03:14.551Z,12.66
2019-05-07T08:03:52.103Z,12.61
2019-05-07T08:04:27.584Z,12.42
2019-05-07T08:05:03.084Z,12.55
2019-05-07T08:05:38.538Z,12.77
2019-05-07T08:06:14.004Z,12.64
2019-05-07T08:07:03.085Z,12.60
2019-05-07T08:07:39.017Z,12.49
2019-05-07T08:08:14.860Z,12.41
2019-05-07T08:08:52.885Z,12.44
2019-05-07T08:09:28.027Z,12.27
2019-05-07T08:10:03.685Z,12.40
2019-05-07T08:10:39.703Z,12.11
2019-05-07T08:11:15.270Z,11.80
2019-05-07T08:11:52.698Z,11.69
2019-05-07T08:12:28.384Z,11.64
2019-05-07T08:13:04.331Z,11.82
2019-05-07T08:13:42.456Z,11.89
2019-05-07T08:14:17.796Z,12.09
2019-05-07T08:14:53.753Z,12.09
2019-05-07T08:15:29.247Z,12.32
2019-05-07T08:16:04.846Z,12.48
2019-05-07T08:16:42.716Z,12.65
2019-05-07T08:17:17.968Z,12.71
2019-05-07T08:17:54.126Z,12.76
2019-05-07T08:18:29.707Z,12.52
2019-05-07T08:19:18.466Z,12.27
2019-05-07T08:19:43.045Z,11.99
2019-05-07T08:20:22.072Z,11.80
2019-05-07T08:20:57.507Z,11.68
2019-05-07T08:21:33.288Z,11.59
2019-05-07T08:22:08.886Z,11.51
2019-05-07T08:22:44.756Z,11.56
2019-05-07T08:23:22.499Z,11.82
2019-05-07T08:23:58.143Z,11.82
2019-05-07T08:24:33.588Z,11.86
2019-05-07T08:25:09.734Z,12.11
2019-05-07T08:25:48.488Z,12.28
2019-05-07T08:26:24.033Z,12.49
2019-05-07T08:27:02.148Z,12.83
2019-05-07T08:27:37.380Z,12.83
2019-05-07T08:28:12.964Z,13.03
2019-05-07T08:28:48.974Z,12.67
2019-05-07T08:29:25.213Z,12.78
2019-05-07T08:30:02.839Z,12.78
2019-05-07T08:30:37.877Z,12.70
2019-05-07T08:31:42.536Z,12.81
2019-05-07T08:32:43.524Z,12.88
2019-05-07T08:33:23.907Z,12.98
2019-05-07T08:34:08.740Z,12.98
2019-05-07T08:34:52.089Z,12.79
2019-05-07T08:35:41.909Z,12.15
2019-05-07T08:36:18.386Z,12.15
2019-05-07T08:36:54.301Z,12.17
2019-05-07T08:37:31.647Z,12.55
2019-05-07T08:38:06.924Z,12.55
2019-05-07T08:38:53.084Z,12.73
2019-05-07T08:39:28.737Z,12.41
2019-05-07T08:40:04.555Z,12.41
2019-05-07T08:40:41.852Z,12.58
2019-05-07T08:41:18.534Z,12.77
2019-05-07T08:41:55.045Z,12.90